Time;durP1;ratioP1;P1;durP2;ratioP2;P2;SDS_P1;SDS_P2;PMS_P1;PMS_P2;Temp;Humidity;BMP_temperature;BMP_pressure;BME280_temperature;BME280_humidity;BME280_pressure;Samples;Min_cycle;Max_cycle;Signal;HPM_P1;HPM_P2
2022/11/01 00:02:23;;;;;;;17.50;9.80;;;;;;;16.66;58.48;101776.44;4937834;28;20166;-79
2022/11/01 00:04:49;;;;;;;19.20;10.77;;;;;;;16.36;58.65;101737.34;4956034;28;20443;-80
2022/11/01 00:07:17;;;;;;;23.50;10.88;;;;;;;16.64;59.16;101778.41;4953757;28;20065;-80
2022/11/01 00:09:44;;;;;;;24.38;11.88;;;;;;;16.48;58.90;101755.91;4940272;28;20139;-78
2022/11/01 00:12:14;;;;;;;20.65;12.27;;;;;;;16.93;57.75;101798.09;4939704;28;20057;-77
2022/11/01 00:14:48;;;;;;;17.80;11.43;;;;;;;16.86;58.89;101801.34;4938221;28;20634;-80
2022/11/01 00:17:16;;;;;;;18.08;11.48;;;;;;;16.80;58.83;101799.28;4940916;28;20062;-81
2022/11/01 00:19:45;;;;;;;22.48;12.55;;;;;;;16.76;58.47;101800.53;4942669;28;20047;-81
2022/11/01 00:22:12;;;;;;;19.85;12.70;;;;;;;16.79;58.38;101815.50;4941461;28;20165;-79
2022/11/01 00:24:39;;;;;;;18.35;11.93;;;;;;;16.58;58.42;101783.53;4935739;28;20062;-80
2022/11/01 00:27:06;;;;;;;21.98;12.15;;;;;;;16.78;58.66;101817.34;4955229;28;20054;-81
2022/11/01 00:29:33;;;;;;;15.40;11.30;;;;;;;16.48;58.86;101782.69;4938993;28;20058;-81
2022/11/01 00:32:03;;;;;;;21.92;11.70;;;;;;;16.58;58.61;101797.78;4941674;28;20418;-81
2022/11/01 00:34:31;;;;;;;18.55;12.40;;;;;;;16.64;58.64;101809.75;4941745;28;20061;-79
2022/11/01 00:36:58;;;;;;;18.30;12.02;;;;;;;16.64;58.67;101805.22;4952974;28;20042;-80
2022/11/01 00:39:25;;;;;;;20.75;11.13;;;;;;;16.50;59.51;101775.38;4937721;28;20468;-79
2022/11/01 00:41:57;;;;;;;20.33;11.65;;;;;;;16.33;59.02;101759.06;4937921;28;20062;-82
2022/11/01 00:44:25;;;;;;;19.30;10.90;;;;;;;16.20;58.76;101748.66;4935835;28;20043;-81
2022/11/01 00:46:52;;;;;;;19.38;10.23;;;;;;;16.57;58.80;101814.00;4939244;28;20093;-81
2022/11/01 00:49:18;;;;;;;18.30;10.68;;;;;;;16.57;59.21;101814.00;4937038;28;20046;-81
2022/11/01 00:51:47;;;;;;;18.65;11.70;;;;;;;16.47;59.34;101797.09;4936987;28;20059;-81
2022/11/01 00:54:15;;;;;;;16.92;10.80;;;;;;;16.51;59.40;101803.88;4936481;28;20362;-80
2022/11/01 00:56:43;;;;;;;18.35;11.13;;;;;;;16.51;59.30;101810.06;4940536;28;20062;-81
2022/11/01 00:59:11;;;;;;;20.83;11.05;;;;;;;16.13;59.31;101730.63;4953981;28;20161;-80
2022/11/01 01:01:38;;;;;;;24.13;10.88;;;;;;;16.41;59.45;101782.47;4952597;28;20528;-81
2022/11/01 01:04:05;;;;;;;19.27;11.10;;;;;;;15.92;58.83;101715.63;4952362;28;20373;-81
2022/11/01 01:06:32;;;;;;;22.15;12.18;;;;;;;16.21;59.19;101774.47;4935315;28;20135;-81
2022/11/01 01:09:00;;;;;;;21.75;11.60;;;;;;;16.39;59.17;101801.34;4952558;28;20342;-80
2022/11/01 01:11:27;;;;;;;21.02;11.07;;;;;;;16.29;59.99;101797.00;4937615;28;20144;-79
2022/11/01 01:13:56;;;;;;;18.05;10.45;;;;;;;16.30;59.82;101796.88;4936958;28;20054;-78
2022/11/01 01:16:23;;;;;;;22.25;10.77;;;;;;;16.33;60.04;101801.94;4935024;28;20793;-81
2022/11/01 01:18:50;;;;;;;17.35;9.90;;;;;;;16.19;59.66;101776.47;4923733;28;20548;-82
2022/11/01 01:21:18;;;;;;;17.92;11.45;;;;;;;16.30;59.14;101786.16;4932073;28;20401;-79
2022/11/01 01:23:47;;;;;;;25.42;11.32;;;;;;;16.29;59.05;101789.84;4932999;28;20063;-80
2022/11/01 01:26:16;;;;;;;;;;;;;;;16.37;58.96;101797.97;4914131;29;20347;-80
2022/11/01 01:28:43;;;;;;;20.83;10.75;;;;;;;16.24;57.99;101738.50;4917299;29;20100;-80
2022/11/01 01:31:12;;;;;;;18.33;9.95;;;;;;;16.43;58.55;101781.31;4931938;29;20051;-80
2022/11/01 01:33:38;;;;;;;17.20;10.23;;;;;;;16.29;58.46;101767.53;4937008;28;20442;-77
2022/11/01 01:36:07;;;;;;;18.88;11.02;;;;;;;16.13;59.03;101752.06;4934271;29;20414;-80
2022/11/01 01:38:34;;;;;;;20.55;13.85;;;;;;;16.44;58.81;101799.09;4951136;28;20058;-79
2022/11/01 01:43:47;;;;;;;19.80;11.68;;;;;;;16.23;57.80;101734.97;4952361;28;20090;-79
2022/11/01 01:46:14;;;;;;;20.33;12.77;;;;;;;16.23;58.77;101726.94;4935471;28;20058;-80
2022/11/01 01:48:44;;;;;;;21.48;11.55;;;;;;;16.43;59.20;101764.38;4937825;28;20223;-81
2022/11/01 01:51:15;;;;;;;17.55;12.07;;;;;;;16.34;58.90;101750.03;4936874;28;20080;-78
2022/11/01 01:53:48;;;;;;;14.90;11.30;;;;;;;16.33;59.25;101759.06;4938388;28;20451;-80
2022/11/01 01:56:21;;;;;;;20.80;12.05;;;;;;;16.41;59.62;101772.59;4938768;28;20967;-80
2022/11/01 01:58:50;;;;;;;19.02;10.10;;;;;;;15.99;59.96;101713.19;4944731;28;20051;-78
2022/11/01 02:01:28;;;;;;;18.75;10.60;;;;;;;16.33;59.51;101787.69;4975992;28;20055;-79
2022/11/01 02:03:55;;;;;;;18.77;10.85;;;;;;;16.22;59.45;101769.97;4958993;28;20302;-81
2022/11/01 02:06:23;;;;;;;18.55;10.13;;;;;;;15.68;58.41;101650.94;4964498;28;20117;-79
2022/11/01 02:08:57;;;;;;;16.92;10.00;;;;;;;14.83;59.12;101522.41;4960020;28;20468;-80
2022/11/01 02:11:24;;;;;;;19.95;9.75;;;;;;;16.21;59.03;101766.44;4940793;28;20421;-80
2022/11/01 02:13:51;;;;;;;16.15;9.98;;;;;;;15.93;59.04;101725.34;4940531;28;20540;-80
2022/11/01 02:16:30;;;;;;;16.90;9.65;;;;;;;16.15;59.12;101771.53;4956914;28;20571;-80
2022/11/01 02:18:59;;;;;;;17.55;9.68;;;;;;;15.78;58.74;101708.88;4939426;28;20359;-81
2022/11/01 02:21:44;;;;;;;19.20;9.38;;;;;;;16.24;58.68;101765.31;4956015;28;20505;-80
2022/11/01 02:24:36;;;;;;;15.75;8.93;;;;;;;16.26;58.91;101767.81;4941198;28;20289;-80
2022/11/01 02:27:39;;;;;;;16.45;9.45;;;;;;;16.11;59.41;101762.91;4943958;28;20150;-81
2022/11/01 02:30:20;;;;;;;14.02;9.35;;;;;;;16.12;59.68;101778.03;4937461;28;20642;-81
2022/11/01 02:33:01;;;;;;;14.82;9.68;;;;;;;15.98;59.37;101731.09;4954718;28;20418;-81
2022/11/01 02:35:55;;;;;;;17.33;9.38;;;;;;;16.02;58.48;101716.44;4964020;28;20286;-80
2022/11/01 02:38:31;;;;;;;15.15;9.07;;;;;;;15.92;58.35;101690.66;4956454;28;20065;-80
2022/11/01 02:41:08;;;;;;;15.80;9.90;;;;;;;15.82;59.65;101696.03;4941418;28;20493;-81
2022/11/01 02:43:47;;;;;;;17.10;9.40;;;;;;;15.98;59.63;101728.41;4942082;28;20050;-78
2022/11/01 02:49:02;;;;;;;19.05;9.88;;;;;;;15.41;59.95;101671.25;4955462;28;20046;-80
2022/11/01 02:51:34;;;;;;;15.48;9.95;;;;;;;16.11;59.77;101767.44;4939215;28;20050;-80
2022/11/01 02:54:09;;;;;;;16.67;10.43;;;;;;;16.16;59.83;101762.50;4938929;28;20428;-80
2022/11/01 02:56:39;;;;;;;15.82;8.88;;;;;;;16.12;59.33;101753.91;4937585;28;20476;-80
2022/11/01 02:59:14;;;;;;;15.60;9.32;;;;;;;16.14;60.07;101775.19;4936246;28;20086;-78
2022/11/01 03:01:45;;;;;;;17.63;9.65;;;;;;;15.79;60.03;101726.63;4940495;28;20754;-80
2022/11/01 03:04:12;;;;;;;14.25;9.68;;;;;;;16.11;60.13;101775.47;4938098;28;20605;-77
2022/11/01 03:06:46;;;;;;;16.48;9.68;;;;;;;15.97;60.90;101777.63;4937577;28;20046;-79
2022/11/01 03:09:14;;;;;;;12.88;9.93;;;;;;;15.71;61.12;101745.22;4938117;28;20177;-82
2022/11/01 03:12:04;;;;;;;18.27;9.63;;;;;;;15.62;61.45;101750.56;4932984;28;21017;-80
2022/11/01 03:15:19;;;;;;;18.23;9.68;;;;;;;15.77;61.37;101784.81;4934588;28;20062;-80
2022/11/01 03:18:00;;;;;;;19.98;9.40;;;;;;;16.00;60.61;101776.50;4933497;28;20415;-79
2022/11/01 03:20:58;;;;;;;13.05;8.98;;;;;;;15.92;60.52;101758.47;4953202;28;20485;-80
2022/11/01 03:23:38;;;;;;;15.75;8.85;;;;;;;15.84;61.64;101760.16;4936586;28;20051;-80
2022/11/01 03:26:10;;;;;;;13.93;9.70;;;;;;;15.79;61.31;101765.94;4938214;28;20408;-80
2022/11/01 03:28:44;;;;;;;15.25;9.68;;;;;;;15.72;61.14;101776.34;4948640;28;20551;-80
2022/11/01 03:31:19;;;;;;;17.70;9.95;;;;;;;15.79;61.57;101790.03;4955802;28;20047;-80
2022/11/01 03:34:14;;;;;;;16.67;9.40;;;;;;;15.56;62.41;101760.84;4935349;28;20057;-81
2022/11/01 03:36:55;;;;;;;16.13;10.05;;;;;;;15.43;62.26;101764.78;4935859;28;20671;-79
2022/11/01 03:39:30;;;;;;;16.85;9.95;;;;;;;15.42;62.78;101769.28;4937137;28;20409;-80
2022/11/01 03:42:09;;;;;;;22.55;10.43;;;;;;;15.55;62.80;101796.59;4935017;28;20325;-80
2022/11/01 03:44:43;;;;;;;25.88;9.93;;;;;;;15.53;62.64;101797.75;4936691;28;20649;-83
2022/11/01 03:47:17;;;;;;;15.35;9.68;;;;;;;15.04;62.87;101746.84;4936941;28;20094;-79
2022/11/01 03:49:44;;;;;;;16.60;10.35;;;;;;;14.96;62.91;101752.88;4931761;28;20637;-79
2022/11/01 03:52:20;;;;;;;14.68;9.80;;;;;;;15.29;62.90;101816.84;4931195;28;20208;-81
2022/11/01 03:54:46;;;;;;;21.40;9.85;;;;;;;15.12;62.64;101792.47;4936358;28;20058;-81
2022/11/01 03:57:13;;;;;;;17.13;10.13;;;;;;;15.16;62.99;101799.22;4938702;28;20050;-81
2022/11/01 03:59:40;;;;;;;13.80;9.23;;;;;;;15.24;63.18;101809.22;4936243;28;20150;-80
2022/11/01 04:02:07;;;;;;;15.93;9.85;;;;;;;14.68;63.09;101711.72;4935914;28;20058;-80
2022/11/01 04:04:33;;;;;;;16.50;9.68;;;;;;;15.25;63.74;101813.63;4937454;28;20422;-80
2022/11/01 04:07:00;;;;;;;17.52;10.38;;;;;;;15.12;63.36;101805.84;4938317;28;20210;-81
2022/11/01 04:09:27;;;;;;;20.38;10.05;;;;;;;15.10;63.23;101805.16;4943567;28;20580;-83
2022/11/01 04:12:01;;;;;;;16.38;9.90;;;;;;;15.20;62.97;101831.06;4938337;28;20153;-81
2022/11/01 04:22:48;;;;;;;14.55;9.57;;;;;;;15.05;62.99;101830.59;4922132;29;20556;-81
2022/11/01 04:25:14;;;;;;;13.77;9.38;;;;;;;15.17;62.97;101841.06;4935207;28;20090;-82
2022/11/01 04:27:44;;;;;;;22.40;8.98;;;;;;;15.40;61.99;101840.81;4932348;28;20226;-80
2022/11/01 04:30:14;;;;;;;18.58;10.00;;;;;;;15.09;61.76;101795.41;4920756;28;20074;-80
2022/11/01 04:32:44;;;;;;;18.60;9.88;;;;;;;15.30;62.49;101839.97;4916605;29;20157;-79
2022/11/01 04:35:12;;;;;;;13.25;9.50;;;;;;;15.41;61.88;101831.81;4916622;29;20121;-79
2022/11/01 04:37:39;;;;;;;18.00;9.40;;;;;;;15.30;62.17;101819.41;4923419;28;20098;-81
2022/11/01 04:40:06;;;;;;;13.93;8.70;;;;;;;15.35;61.90;101830.53;4936598;28;20131;-79
2022/11/01 04:42:37;;;;;;;15.60;8.90;;;;;;;15.27;60.88;101792.09;4939608;28;20113;-81
2022/11/01 04:45:05;;;;;;;13.13;9.13;;;;;;;15.41;61.49;101829.13;4941210;28;20376;-81
2022/11/01 04:47:32;;;;;;;15.75;8.98;;;;;;;15.12;61.87;101789.81;4935421;28;20651;-80
2022/11/01 04:49:59;;;;;;;12.70;8.38;;;;;;;15.20;61.69;101791.78;4954259;28;20051;-80
2022/11/01 04:52:27;;;;;;;17.52;8.68;;;;;;;15.27;61.77;101819.69;4937228;28;20047;-79
2022/11/01 04:54:57;;;;;;;14.90;8.98;;;;;;;14.98;62.65;101776.81;4937628;28;20141;-80
2022/11/01 04:57:24;;;;;;;14.40;8.77;;;;;;;15.08;62.69;101796.41;4937620;28;20055;-81
2022/11/01 04:59:52;;;;;;;19.13;9.55;;;;;;;14.67;62.16;101736.75;4938482;28;20050;-79
2022/11/01 05:02:22;;;;;;;16.40;9.32;;;;;;;15.03;62.18;101805.81;4934825;28;20062;-80
2022/11/01 05:04:49;;;;;;;18.58;9.40;;;;;;;15.09;61.87;101827.50;4937282;28;20146;-81
2022/11/01 05:07:16;;;;;;;11.88;8.70;;;;;;;15.02;62.68;101826.34;4935377;28;20061;-83
2022/11/01 05:09:43;;;;;;;12.52;8.60;;;;;;;15.03;62.70;101838.75;4934961;28;20113;-81
2022/11/01 05:12:11;;;;;;;18.58;9.90;;;;;;;14.91;62.44;101819.28;4939049;28;20150;-79
2022/11/01 05:14:38;;;;;;;18.38;9.68;;;;;;;14.90;62.86;101812.25;4936209;28;20050;-81
2022/11/01 05:17:04;;;;;;;19.50;8.52;;;;;;;15.09;62.43;101832.84;4935158;28;20168;-80
2022/11/01 05:19:32;;;;;;;14.68;9.25;;;;;;;15.11;61.86;101809.50;4918890;28;20051;-80
2022/11/01 05:22:03;;;;;;;20.38;9.55;;;;;;;15.20;61.96;101825.72;4936766;28;20158;-81
2022/11/01 05:24:31;;;;;;;13.82;8.82;;;;;;;15.08;62.62;101824.97;4950071;28;20057;-81
2022/11/01 05:26:59;;;;;;;19.80;8.70;;;;;;;15.06;62.33;101825.09;4951465;28;20962;-81
2022/11/01 05:29:30;;;;;;;17.73;9.57;;;;;;;15.22;62.37;101847.81;4951672;28;20046;-80
2022/11/01 05:31:58;;;;;;;17.00;8.90;;;;;;;15.08;62.96;101847.22;4953121;28;20401;-81
2022/11/01 05:34:30;;;;;;;14.73;9.48;;;;;;;14.93;63.74;101822.69;4937080;28;20050;-81
2022/11/01 05:36:57;;;;;;;14.65;9.43;;;;;;;15.02;63.34;101847.75;4934121;28;20047;-81
2022/11/01 05:39:24;;;;;;;18.60;9.52;;;;;;;14.99;63.39;101852.53;4918306;29;20058;-81
2022/11/01 05:41:52;;;;;;;21.77;9.57;;;;;;;14.72;63.38;101813.88;4919334;29;20549;-80
2022/11/01 05:44:23;;;;;;;14.90;9.52;;;;;;;14.82;63.03;101829.94;4920764;29;20533;-79
2022/11/01 05:46:50;;;;;;;22.45;9.85;;;;;;;14.91;63.39;101845.19;4919246;29;20055;-80
2022/11/01 05:49:18;;;;;;;14.75;9.45;;;;;;;14.61;63.93;101796.09;4934580;28;20054;-80
2022/11/01 05:51:47;;;;;;;14.57;8.63;;;;;;;14.80;63.43;101823.88;4952294;28;20503;-81
2022/11/01 05:54:14;;;;;;;17.40;10.05;;;;;;;14.65;63.85;101808.19;4939417;28;20059;-81
2022/11/01 05:56:42;;;;;;;18.83;9.65;;;;;;;14.80;63.69;101830.06;4939258;28;20505;-81
2022/11/01 05:59:08;;;;;;;14.70;9.70;;;;;;;14.86;63.80;101826.03;4954392;28;20141;-81
2022/11/01 06:01:35;;;;;;;17.27;9.10;;;;;;;15.07;62.96;101842.00;4940154;28;20429;-79
2022/11/01 06:04:02;;;;;;;17.70;9.90;;;;;;;15.07;63.09;101842.88;4955435;28;20081;-79
2022/11/01 06:06:29;;;;;;;21.95;9.93;;;;;;;14.93;62.70;101811.16;4958631;28;20047;-79
2022/11/01 06:09:00;;;;;;;18.10;9.07;;;;;;;15.05;62.45;101812.72;4972283;28;20058;-78
2022/11/01 06:11:27;;;;;;;18.05;9.00;;;;;;;14.00;62.70;101649.97;4959297;28;20066;-78
2022/11/01 06:13:57;;;;;;;18.70;9.77;;;;;;;14.78;63.35;101791.94;4958287;28;20047;-79
2022/11/01 06:16:25;;;;;;;17.30;9.40;;;;;;;14.99;63.64;101831.97;4975668;28;20050;-79
2022/11/01 06:18:52;;;;;;;19.58;8.82;;;;;;;15.11;63.06;101844.25;4973722;28;20131;-80
2022/11/01 06:21:22;;;;;;;16.60;9.05;;;;;;;14.55;63.80;101753.03;4959737;28;20054;-79
2022/11/01 06:23:58;;;;;;;24.15;9.85;;;;;;;14.94;63.85;101823.53;4956449;28;20046;-78
2022/11/01 06:26:28;;;;;;;15.50;10.13;;;;;;;14.67;63.79;101781.34;4955297;28;20082;-76
2022/11/01 06:28:54;;;;;;;14.40;9.13;;;;;;;15.03;63.79;101838.75;4956577;28;20054;-79
2022/11/01 06:31:21;;;;;;;17.23;9.32;;;;;;;14.89;64.39;101826.59;4971895;28;20058;-78
2022/11/01 06:33:51;;;;;;;14.40;9.13;;;;;;;14.47;64.53;101751.84;4969314;28;20039;-79
2022/11/01 06:36:19;;;;;;;21.23;8.88;;;;;;;14.57;63.79;101777.78;4940963;28;20117;-81
2022/11/01 06:38:46;;;;;;;18.63;9.05;;;;;;;15.09;63.56;101858.75;4937843;28;20316;-80
2022/11/01 06:41:12;;;;;;;20.45;9.30;;;;;;;15.06;63.75;101843.81;4939566;28;20154;-79
2022/11/01 06:43:39;;;;;;;14.45;9.00;;;;;;;15.13;64.37;101860.19;4937833;28;20141;-81
2022/11/01 06:46:06;;;;;;;16.05;10.02;;;;;;;15.15;64.16;101864.41;4944590;28;20742;-82
2022/11/01 06:48:39;;;;;;;17.73;9.43;;;;;;;15.02;63.77;101842.41;4959527;28;20260;-79
2022/11/01 06:51:06;;;;;;;18.75;9.48;;;;;;;15.05;63.30;101838.59;4943554;28;20051;-81
2022/11/01 06:53:32;;;;;;;13.13;8.27;;;;;;;15.47;62.43;101874.09;4940504;28;20063;-80
2022/11/01 06:56:02;;;;;;;19.65;9.00;;;;;;;15.35;61.43;101859.97;4956418;28;20046;-82
2022/11/01 06:58:29;;;;;;;14.85;8.30;;;;;;;15.46;62.64;101871.53;4940711;28;20562;-82
2022/11/01 07:00:55;;;;;;;13.38;8.98;;;;;;;15.35;61.90;101856.44;4940821;28;20464;-81
2022/11/01 07:03:22;;;;;;;12.32;8.00;;;;;;;14.72;62.41;101750.56;4929617;28;20572;-81
2022/11/01 07:05:55;;;;;;;13.82;9.05;;;;;;;15.53;62.36;101884.22;4934986;28;20077;-79
2022/11/01 07:08:25;;;;;;;15.10;8.77;;;;;;;15.59;62.13;101893.56;4936105;28;20541;-81
2022/11/01 07:10:51;;;;;;;15.65;8.77;;;;;;;15.62;61.96;101897.78;4956685;28;20050;-79
2022/11/01 07:13:25;;;;;;;15.82;7.85;;;;;;;15.50;61.83;101879.16;4939818;28;20650;-80
2022/11/01 07:15:52;;;;;;;16.02;8.10;;;;;;;15.58;61.29;101892.72;4940139;28;20054;-81
2022/11/01 07:18:19;;;;;;;11.93;7.70;;;;;;;15.77;60.51;101912.47;4943787;28;20074;-81
2022/11/01 07:20:46;;;;;;;12.88;7.90;;;;;;;15.76;60.62;101906.28;4954637;28;20047;-80
2022/11/01 07:23:15;;;;;;;19.10;8.45;;;;;;;15.86;61.11;101913.50;4952341;28;20160;-81
2022/11/01 07:25:49;;;;;;;13.70;8.70;;;;;;;15.85;60.91;101899.25;4956533;28;20211;-81
2022/11/01 07:28:16;;;;;;;17.65;8.40;;;;;;;15.45;60.64;101827.88;4949022;28;21124;-81
2022/11/01 07:30:46;;;;;;;10.75;7.25;;;;;;;15.43;59.98;101802.25;4962859;28;20113;-81
2022/11/01 07:33:13;;;;;;;11.10;7.38;;;;;;;16.15;59.33;101897.44;4965631;28;20766;-81
2022/11/01 07:35:45;;;;;;;16.00;8.05;;;;;;;15.16;58.05;101721.66;4948278;28;20446;-80
2022/11/01 07:38:12;;;;;;;18.80;7.97;;;;;;;16.13;58.89;101880.66;4951607;28;20214;-81
2022/11/01 07:40:40;;;;;;;11.57;6.70;;;;;;;16.34;59.34;101904.63;4960317;28;20442;-82
2022/11/01 07:43:07;;;;;;;15.75;7.88;;;;;;;16.48;58.12;101922.09;4946490;28;20079;-80
2022/11/01 07:45:35;;;;;;;12.65;7.88;;;;;;;15.97;58.62;101831.19;4952179;28;20515;-81
2022/11/01 07:48:05;;;;;;;15.55;7.45;;;;;;;16.38;58.39;101876.53;4960554;28;20049;-80
2022/11/01 07:50:33;;;;;;;14.15;7.90;;;;;;;16.54;58.01;101886.69;4944208;28;20519;-81
2022/11/01 07:53:17;;;;;;;13.30;10.60;;;;;;;16.80;58.27;101906.53;4948586;28;20233;-79
2022/11/01 07:55:45;;;;;;;14.77;9.30;;;;;;;15.81;58.72;101739.88;4941911;28;20390;-80
2022/11/01 07:58:15;;;;;;;10.32;7.15;;;;;;;16.96;58.23;101919.31;4940317;28;20064;-81
2022/11/01 08:00:43;;;;;;;13.77;7.90;;;;;;;16.88;58.42;101898.59;4939979;28;20046;-81
2022/11/01 08:03:13;;;;;;;12.55;7.32;;;;;;;17.01;56.48;101892.06;4936963;28;20070;-81
2022/11/01 08:05:42;;;;;;;18.48;6.85;;;;;;;17.27;56.31;101919.91;4937558;28;20077;-78
2022/11/01 08:08:15;;;;;;;10.27;6.22;;;;;;;17.04;54.92;101859.59;4945772;28;20150;-81
2022/11/01 08:10:42;;;;;;;12.73;6.70;;;;;;;17.47;55.15;101914.44;4956147;28;20110;-79
2022/11/01 08:13:23;;;;;;;11.82;6.38;;;;;;;17.59;54.66;101923.16;4953684;28;20051;-79
2022/11/01 08:15:53;;;;;;;13.57;6.87;;;;;;;17.63;54.41;101921.84;4951774;28;20046;-82
2022/11/01 08:18:21;;;;;;;9.82;5.57;;;;;;;17.63;53.47;101878.91;4959857;28;20066;-79
2022/11/01 08:20:48;;;;;;;13.18;6.32;;;;;;;17.77;53.52;101889.13;4956494;28;20485;-80
2022/11/01 08:23:15;;;;;;;10.60;6.35;;;;;;;17.94;52.85;101892.84;4958752;28;20157;-80
2022/11/01 08:25:42;;;;;;;7.60;5.45;;;;;;;17.73;52.16;101837.53;4980100;28;20484;-79
2022/11/01 08:28:17;;;;;;;10.52;6.10;;;;;;;18.31;51.57;101902.56;4981637;28;20057;-79
2022/11/01 08:30:46;;;;;;;11.15;5.22;;;;;;;18.43;51.48;101904.00;4982984;28;20324;-79
2022/11/01 08:33:13;;;;;;;12.73;5.65;;;;;;;18.00;50.94;101813.47;4965814;28;20047;-80
2022/11/01 08:35:39;;;;;;;8.70;4.97;;;;;;;18.55;50.08;101889.31;4972388;28;20047;-79
2022/11/01 08:38:10;;;;;;;14.75;5.68;;;;;;;18.77;49.58;101909.47;4973091;28;20105;-80
2022/11/01 08:40:36;;;;;;;10.90;5.50;;;;;;;18.29;49.72;101818.53;4954490;28;20441;-80
2022/11/01 08:43:03;;;;;;;7.35;5.30;;;;;;;18.78;49.39;101894.19;4972894;28;20082;-81
2022/11/01 08:45:30;;;;;;;13.32;5.00;;;;;;;18.77;48.91;101876.38;4971003;28;20059;-80
2022/11/01 08:48:02;;;;;;;12.55;5.35;;;;;;;19.13;48.70;101922.81;4959056;28;20555;-82
2022/11/01 08:50:28;;;;;;;;;;;;;;;19.16;47.96;101924.34;4957548;28;20059;-80
2022/11/01 08:52:56;;;;;;;9.60;4.78;;;;;;;19.19;48.80;101924.00;4958742;28;20269;-79
2022/11/01 08:55:23;;;;;;;7.70;5.05;;;;;;;19.28;49.16;101920.34;4973603;28;20140;-79
2022/11/01 08:57:50;;;;;;;10.60;4.53;;;;;;;19.37;48.77;101911.31;4972897;28;20106;-79
2022/11/01 09:00:17;;;;;;;9.40;4.55;;;;;;;19.39;47.63;101908.44;4957860;28;20055;-80
2022/11/01 09:02:44;;;;;;;7.20;3.72;;;;;;;19.58;47.51;101918.94;4971849;28;20067;-78
2022/11/01 09:05:11;;;;;;;8.88;4.43;;;;;;;19.63;47.31;101918.44;4970400;28;20062;-81
2022/11/01 09:07:39;;;;;;;9.68;4.10;;;;;;;19.71;46.13;101929.28;4961169;28;20089;-84
2022/11/01 09:10:07;;;;;;;10.23;3.75;;;;;;;19.80;46.56;101917.50;4971550;28;20070;-80
2022/11/01 09:12:34;;;;;;;10.50;4.53;;;;;;;19.85;46.76;101912.50;4958723;28;20143;-80
2022/11/01 09:15:02;;;;;;;6.22;4.43;;;;;;;19.89;46.10;101917.53;4953534;28;20058;-80
2022/11/01 09:17:29;;;;;;;7.60;4.38;;;;;;;19.74;46.28;101877.78;4955522;28;20047;-79
2022/11/01 09:19:56;;;;;;;12.02;4.47;;;;;;;20.09;45.22;101916.22;4948217;28;20231;-80
2022/11/01 09:22:25;;;;;;;6.30;3.42;;;;;;;20.05;45.38;101909.50;4941685;28;20062;-79
2022/11/01 09:24:54;;;;;;;11.38;5.70;;;;;;;19.84;45.14;101867.69;4939431;28;20061;-79
2022/11/01 09:27:27;;;;;;;9.13;4.32;;;;;;;19.65;45.00;101814.06;4936990;28;20058;-80
2022/11/01 09:29:54;;;;;;;10.55;4.07;;;;;;;20.32;45.65;101915.56;4935984;28;20062;-79
2022/11/01 09:32:27;;;;;;;4.80;3.88;;;;;;;19.74;44.57;101815.81;4934234;28;20054;-79
2022/11/01 09:34:54;;;;;;;7.70;3.95;;;;;;;20.40;45.05;101929.03;4935274;28;20340;-80
2022/11/01 09:37:21;;;;;;;10.82;3.72;;;;;;;20.17;44.81;101886.56;4937083;28;20117;-80
2022/11/01 09:39:48;;;;;;;6.85;4.30;;;;;;;20.58;44.24;101931.56;4933903;28;20145;-81
2022/11/01 09:42:38;;;;;;;10.85;4.07;;;;;;;20.36;43.73;101908.81;4937107;28;20085;-80
2022/11/01 09:45:12;;;;;;;11.77;4.35;;;;;;;20.47;44.58;101914.69;4936326;28;20067;-80
2022/11/01 09:47:41;;;;;;;11.10;4.13;;;;;;;20.70;44.68;101938.31;4938521;28;20606;-80
2022/11/01 09:50:17;;;;;;;7.47;4.15;;;;;;;20.58;44.37;101885.72;4949687;28;20066;-79
2022/11/01 09:52:49;;;;;;;7.97;5.18;;;;;;;20.88;44.64;101911.13;4933289;28;20394;-79
2022/11/01 09:55:38;;;;;;;13.55;5.60;;;;;;;21.20;44.23;101931.78;4932028;28;20093;-80
2022/11/01 09:58:42;;;;;;;9.32;4.72;;;;;;;21.25;44.65;101933.97;4932346;28;20053;-80
2022/11/01 10:01:40;;;;;;;16.10;5.57;;;;;;;21.35;45.44;101934.59;4931702;28;20055;-80
2022/11/01 10:04:29;;;;;;;10.05;6.10;;;;;;;21.15;45.08;101887.44;4934090;28;20324;-82
2022/11/01 10:07:08;;;;;;;14.35;6.10;;;;;;;21.37;45.44;101910.94;4931124;28;20422;-80
2022/11/01 10:09:56;;;;;;;17.25;6.35;;;;;;;21.60;44.52;101929.09;4941331;28;20208;-79
2022/11/01 10:13:06;;;;;;;11.10;6.43;;;;;;;21.48;44.35;101896.22;4950807;28;20163;-79
2022/11/01 10:16:01;;;;;;;11.95;6.05;;;;;;;21.92;44.52;101937.03;4950156;28;20460;-81
2022/11/01 10:18:43;;;;;;;11.88;6.47;;;;;;;22.02;44.47;101925.16;4955124;28;20063;-80
2022/11/01 10:21:14;;;;;;;13.65;5.93;;;;;;;21.94;44.13;101901.69;4958723;28;20344;-79
2022/11/01 10:23:51;;;;;;;14.38;6.32;;;;;;;22.14;43.93;101929.13;4969471;28;20059;-80
2022/11/01 10:26:28;;;;;;;14.57;6.20;;;;;;;21.92;43.89;101893.78;4936936;28;20172;-80
2022/11/01 10:29:22;;;;;;;12.05;6.22;;;;;;;22.21;43.34;101935.50;4933489;28;20553;-80
2022/11/01 10:31:52;;;;;;;11.52;5.45;;;;;;;22.11;43.74;101903.28;4933108;28;20165;-80
2022/11/01 10:34:36;;;;;;;15.18;6.53;;;;;;;22.02;43.14;101904.34;4920452;28;20062;-81
2022/11/01 10:37:47;;;;;;;11.82;6.25;;;;;;;22.19;42.90;101942.94;4933177;28;20169;-80
2022/11/01 10:40:37;;;;;;;;;;;;;;;22.17;42.58;101929.56;4938986;28;20117;-79
2022/11/01 10:43:16;;;;;;;;;;;;;;;22.20;42.13;101928.41;4940070;28;20148;-78
2022/11/01 10:45:45;;;;;;;14.38;6.53;;;;;;;22.14;43.07;101908.31;4937399;28;19926;-80
2022/11/01 10:48:28;;;;;;;11.07;6.03;;;;;;;22.26;42.75;101927.69;4938747;28;20497;-79
2022/11/01 10:51:00;;;;;;;9.80;5.80;;;;;;;22.15;42.99;101915.38;4937901;28;20125;-80
2022/11/01 10:53:30;;;;;;;11.95;6.38;;;;;;;21.92;42.86;101877.56;4946970;28;20055;-77
2022/11/01 10:56:07;;;;;;;10.43;5.93;;;;;;;22.23;42.71;101928.03;4957830;28;20523;-79
2022/11/01 10:58:59;;;;;;;8.65;5.55;;;;;;;22.24;42.52;101932.44;4937161;28;20134;-77
2022/11/01 11:01:34;;;;;;;10.05;5.32;;;;;;;22.20;41.94;101931.09;4918589;28;20093;-80
2022/11/01 11:04:06;;;;;;;11.65;4.60;;;;;;;22.21;41.78;101927.41;4922646;28;20543;-79
2022/11/01 11:06:35;;;;;;;13.50;5.57;;;;;;;21.89;41.86;101886.00;4919263;28;20350;-81
2022/11/01 11:09:05;;;;;;;13.60;6.78;;;;;;;21.84;42.28;101874.91;4935017;28;20058;-79
2022/11/01 11:11:43;;;;;;;8.60;5.30;;;;;;;21.68;41.41;101845.31;4934530;28;20459;-80
2022/11/01 11:14:11;;;;;;;12.05;6.07;;;;;;;22.08;41.78;101910.91;4921313;28;20059;-80
2022/11/01 11:16:44;;;;;;;14.60;6.28;;;;;;;21.51;42.83;101809.44;4933066;28;20342;-79
2022/11/01 11:19:14;;;;;;;9.90;6.20;;;;;;;21.96;41.99;101867.22;4940002;28;20488;-80
2022/11/01 11:21:47;;;;;;;11.15;6.10;;;;;;;22.22;42.11;101904.72;4950642;28;20315;-79
2022/11/01 11:24:22;;;;;;;13.63;5.95;;;;;;;21.68;42.91;101818.28;4947428;28;20556;-80
2022/11/01 11:26:56;;;;;;;10.23;6.78;;;;;;;21.99;41.82;101874.94;4952925;28;20312;-80
2022/11/01 11:29:38;;;;;;;14.90;6.60;;;;;;;22.19;42.25;101899.66;4942683;28;20053;-80
2022/11/01 11:32:15;;;;;;;17.80;7.13;;;;;;;22.21;42.86;101900.34;4937173;28;20142;-80
2022/11/01 11:34:41;;;;;;;9.38;6.15;;;;;;;22.23;43.13;101894.75;4918059;29;20055;-81
2022/11/01 11:37:20;;;;;;;10.70;6.07;;;;;;;22.16;43.15;101876.53;4927279;28;20069;-80
2022/11/01 11:40:13;;;;;;;12.05;6.25;;;;;;;22.23;43.11;101882.06;4940384;28;20081;-80
2022/11/01 11:42:43;;;;;;;17.98;7.40;;;;;;;22.18;42.99;101877.16;4939881;28;20093;-82
2022/11/01 11:45:33;;;;;;;14.70;5.93;;;;;;;22.24;42.57;101877.50;4943465;28;20272;-80
2022/11/01 11:48:20;;;;;;;14.20;5.68;;;;;;;22.19;42.05;101875.31;4941093;28;20661;-83
2022/11/01 11:51:03;;;;;;;11.90;5.50;;;;;;;22.30;42.03;101874.06;4922153;28;20731;-81
2022/11/01 11:53:32;;;;;;;10.63;5.38;;;;;;;22.26;42.34;101884.41;4941845;28;20553;-81